Aviation Digital Data Service (ADDS)

Output produced by TAFs form (0941 UTC 04 August 2015)
found at http://aviationweather.gov/adds/tafs/
 
KVEL 040521Z 0406/0506 36003KT P6SM SKC 
     FM041400 VRB03KT P6SM SKC 
     FM041900 22010G20KT P6SM FEW140 
     FM050200 33005KT P6SM FEW150